Time;durP1;ratioP1;P1;durP2;ratioP2;P2;SDS_P1;SDS_P2;PMS_P1;PMS_P2;Temp;Humidity;BMP_temperature;BMP_pressure;BME280_temperature;BME280_humidity;BME280_pressure;Samples;Min_cycle;Max_cycle;Signal;HPM_P1;HPM_P2
2023/02/01 00:01:48;;;;;;;8.83;7.93;;;;;;;4.32;61.36;99518.56;5093788;28;20051;-79
2023/02/01 00:04:14;;;;;;;9.53;7.77;;;;;;;4.22;61.10;99509.91;5093735;28;20028;-79
2023/02/01 00:06:40;;;;;;;8.67;7.33;;;;;;;4.43;60.97;99544.56;5092433;28;20103;-79
2023/02/01 00:09:05;;;;;;;8.60;7.70;;;;;;;4.47;60.86;99547.75;5092292;28;20043;-79
2023/02/01 00:11:31;;;;;;;9.40;7.50;;;;;;;4.34;60.78;99548.00;5093849;28;20028;-79
2023/02/01 00:13:57;;;;;;;9.50;7.77;;;;;;;4.39;60.77;99540.56;5093223;28;20020;-79
2023/02/01 00:16:25;;;;;;;10.57;8.33;;;;;;;4.19;60.56;99515.41;5093093;28;20024;-79
2023/02/01 00:18:56;;;;;;;24.17;13.77;;;;;;;4.50;60.77;99565.78;5093006;28;20489;-79
2023/02/01 00:21:22;;;;;;;7.93;7.13;;;;;;;4.82;60.69;99611.72;5091727;28;20048;-79
2023/02/01 00:23:48;;;;;;;9.23;7.23;;;;;;;4.59;60.55;99580.63;5093106;28;20032;-79
2023/02/01 00:26:30;;;;;;;8.43;7.43;;;;;;;4.85;60.36;99622.72;5092920;28;20024;-79
2023/02/01 00:28:55;;;;;;;7.85;7.00;;;;;;;4.56;60.32;99572.25;5093087;28;20016;-79
2023/02/01 00:31:20;;;;;;;8.93;6.80;;;;;;;4.51;60.41;99562.19;5092980;28;20039;-79
2023/02/01 00:33:49;;;;;;;10.30;6.70;;;;;;;4.88;59.87;99630.28;5093084;28;20031;-78
2023/02/01 00:36:15;;;;;;;7.80;6.50;;;;;;;4.23;59.90;99522.00;5093218;28;20059;-79
2023/02/01 00:38:40;;;;;;;8.03;5.83;;;;;;;4.84;59.74;99617.63;5092888;28;20060;-79
2023/02/01 00:41:14;;;;;;;6.97;6.03;;;;;;;4.71;59.86;99589.97;5092448;28;20032;-79
2023/02/01 00:43:40;;;;;;;9.20;6.63;;;;;;;4.31;59.46;99540.44;5092867;28;20030;-79
2023/02/01 00:46:05;;;;;;;7.13;5.87;;;;;;;4.41;59.45;99570.00;5092704;28;20114;-79
2023/02/01 00:48:31;;;;;;;6.63;5.90;;;;;;;4.86;59.67;99623.53;5092790;28;20020;-79
2023/02/01 00:51:04;;;;;;;7.73;6.73;;;;;;;4.45;59.39;99566.16;5092555;28;20024;-79
2023/02/01 00:53:31;;;;;;;8.30;6.57;;;;;;;4.87;59.50;99626.03;5092832;28;20121;-79
2023/02/01 00:55:57;;;;;;;8.00;6.27;;;;;;;4.88;59.29;99629.47;5093447;28;20058;-79
2023/02/01 00:58:25;;;;;;;7.57;5.90;;;;;;;4.88;59.45;99642.53;5093414;28;20031;-79
2023/02/01 01:01:08;;;;;;;7.30;6.37;;;;;;;4.87;58.62;99626.03;5093170;28;20032;-79
2023/02/01 01:03:37;;;;;;;8.23;6.33;;;;;;;4.71;59.02;99610.06;5093085;28;20507;-79
2023/02/01 01:06:08;;;;;;;7.63;6.37;;;;;;;4.61;59.45;99593.56;5092947;28;20054;-79
2023/02/01 01:08:34;;;;;;;7.47;6.68;;;;;;;4.87;59.26;99619.97;5092932;28;20103;-79
2023/02/01 01:11:15;;;;;;;6.13;5.53;;;;;;;4.84;58.84;99626.31;5093301;28;20093;-79
2023/02/01 01:13:40;;;;;;;8.03;6.80;;;;;;;4.80;59.38;99630.16;5091260;28;20028;-79
2023/02/01 01:16:08;;;;;;;7.57;6.40;;;;;;;4.73;59.14;99614.19;5092251;28;20020;-79
2023/02/01 01:18:34;;;;;;;8.23;6.40;;;;;;;4.24;59.11;99534.13;5090940;28;20027;-79
2023/02/01 01:20:59;;;;;;;7.67;6.20;;;;;;;4.54;59.08;99571.56;5092144;28;20043;-79
2023/02/01 01:23:25;;;;;;;7.20;6.10;;;;;;;4.79;59.28;99607.59;5091898;28;20414;-79
2023/02/01 01:25:51;;;;;;;7.23;6.17;;;;;;;4.19;59.34;99525.88;5091873;28;20098;-79
2023/02/01 01:28:16;;;;;;;7.23;6.53;;;;;;;4.16;59.16;99531.38;5092171;28;20020;-79
2023/02/01 01:30:42;;;;;;;8.07;6.37;;;;;;;4.47;58.84;99576.50;5092057;28;20030;-79
2023/02/01 01:33:07;;;;;;;7.47;6.10;;;;;;;4.27;58.74;99553.91;5092419;28;20024;-79
2023/02/01 01:35:33;;;;;;;7.67;6.30;;;;;;;4.62;58.92;99592.59;5092154;28;20028;-79
2023/02/01 01:37:59;;;;;;;7.80;6.30;;;;;;;4.05;58.82;99502.75;5092177;28;20390;-79
2023/02/01 01:40:26;;;;;;;7.67;6.17;;;;;;;4.73;58.76;99611.59;5092570;28;20111;-79
2023/02/01 01:42:54;;;;;;;7.60;6.40;;;;;;;4.55;58.74;99584.47;5091153;28;20051;-79
2023/02/01 01:45:24;;;;;;;8.07;5.70;;;;;;;4.58;58.47;99589.44;5092283;28;20492;-79
2023/02/01 01:48:22;;;;;;;6.23;5.37;;;;;;;4.74;58.23;99608.00;5092514;28;20036;-79
2023/02/01 01:50:53;;;;;;;8.63;5.73;;;;;;;4.74;58.30;99621.09;5091676;28;20487;-79
2023/02/01 01:53:24;;;;;;;6.47;5.35;;;;;;;4.54;58.48;99587.25;5093850;28;20078;-79
2023/02/01 01:55:52;;;;;;;8.07;4.80;;;;;;;4.70;58.25;99598.78;5095063;28;20043;-79
2023/02/01 01:58:20;;;;;;;5.50;4.43;;;;;;;4.14;58.15;99510.59;5095167;28;20293;-79
2023/02/01 02:00:47;;;;;;;5.63;4.67;;;;;;;4.33;57.98;99559.41;5095011;28;20028;-79
2023/02/01 02:03:26;;;;;;;5.43;4.33;;;;;;;4.72;57.59;99615.16;5095372;28;20035;-79
2023/02/01 02:05:55;;;;;;;6.60;4.27;;;;;;;4.37;58.07;99558.19;5095078;28;20516;-79
2023/02/01 02:08:21;;;;;;;6.63;4.70;;;;;;;4.08;57.71;99519.00;5094765;28;20020;-79
2023/02/01 02:10:59;;;;;;;4.80;4.20;;;;;;;4.52;57.44;99578.72;5095194;28;20027;-79
2023/02/01 02:13:34;;;;;;;5.37;4.10;;;;;;;4.70;57.52;99611.84;5095715;28;20106;-79
2023/02/01 02:16:18;;;;;;;5.73;4.53;;;;;;;4.69;57.29;99609.38;5093597;28;20120;-79
2023/02/01 02:19:21;;;;;;;5.47;3.97;;;;;;;4.66;57.55;99613.09;5094726;28;20032;-79
2023/02/01 02:22:22;;;;;;;5.10;3.70;;;;;;;4.57;57.15;99606.09;5095583;28;20463;-78
2023/02/01 02:25:25;;;;;;;5.57;4.67;;;;;;;4.57;56.89;99621.78;5090782;28;20056;-79
2023/02/01 02:28:08;;;;;;;4.27;3.70;;;;;;;4.56;57.28;99617.50;5090775;28;20028;-79
2023/02/01 02:30:51;;;;;;;5.60;4.20;;;;;;;4.06;57.13;99551.44;5092163;28;20024;-79
2023/02/01 02:33:34;;;;;;;5.37;4.03;;;;;;;4.47;57.25;99611.31;5090659;28;20023;-79
2023/02/01 02:36:04;;;;;;;4.40;3.93;;;;;;;4.42;57.27;99615.28;5090481;28;20615;-79
2023/02/01 02:38:50;;;;;;;4.60;3.83;;;;;;;3.95;57.18;99536.72;5093793;28;20042;-78
2023/02/01 02:47:32;;;;;;;;;;;;;;;4.18;57.11;99615.66;5100212;28;20066;-78
2023/02/01 03:04:20;;;;;;;5.50;4.37;;;;;;;4.24;57.74;99620.34;5094255;28;20080;-79
2023/02/01 03:06:46;;;;;;;5.00;4.50;;;;;;;4.26;57.58;99620.22;5093501;28;20090;-79
2023/02/01 03:09:40;;;;;;;6.00;5.20;;;;;;;4.21;56.59;99622.41;5094803;28;20016;-79
2023/02/01 03:15:12;;;;;;;8.47;6.57;;;;;;;4.07;57.45;99592.28;5071104;28;20074;-79
2023/02/01 03:17:41;;;;;;;8.17;5.60;;;;;;;4.24;57.66;99622.97;5094292;28;20096;-79
2023/02/01 03:20:13;;;;;;;7.53;5.67;;;;;;;3.75;57.62;99548.09;5093996;28;20110;-78
2023/02/01 03:22:41;;;;;;;6.10;4.95;;;;;;;4.01;57.34;99582.38;5094461;28;20107;-79
2023/02/01 03:25:20;;;;;;;9.87;6.43;;;;;;;3.69;57.45;99532.94;5094372;28;20485;-79
2023/02/01 03:27:54;;;;;;;7.07;5.67;;;;;;;3.89;57.00;99635.69;5094291;28;20493;-79
2023/02/01 03:30:28;;;;;;;5.57;4.23;;;;;;;4.18;57.02;99627.91;5094089;28;20020;-79
2023/02/01 03:33:00;;;;;;;5.10;4.07;;;;;;;3.56;57.08;99522.75;5094369;28;20047;-79
2023/02/01 03:36:06;;;;;;;4.72;3.90;;;;;;;4.16;57.17;99622.81;5094222;28;20024;-79
2023/02/01 03:38:37;;;;;;;3.70;3.40;;;;;;;4.16;57.39;99620.22;5081944;28;20040;-79
2023/02/01 03:41:32;;;;;;;4.32;3.92;;;;;;;4.15;57.42;99629.00;5092835;28;20063;-79
2023/02/01 03:44:03;;;;;;;4.73;3.57;;;;;;;4.19;57.36;99625.16;5094020;28;20023;-79
2023/02/01 03:46:37;;;;;;;10.00;6.22;;;;;;;3.64;57.48;99543.78;5093928;28;20416;-79
2023/02/01 03:49:08;;;;;;;5.43;4.67;;;;;;;4.23;57.42;99644.00;5092476;28;20036;-79
2023/02/01 03:51:37;;;;;;;5.67;3.60;;;;;;;3.93;56.96;99577.81;5093769;28;20052;-79
2023/02/01 03:54:06;;;;;;;4.43;2.90;;;;;;;3.87;57.23;99577.53;5094043;28;20073;-79
2023/02/01 03:56:36;;;;;;;3.13;2.73;;;;;;;4.19;57.27;99638.22;5093904;28;20024;-79
2023/02/01 03:59:01;;;;;;;3.43;3.10;;;;;;;3.85;56.99;99580.28;5094109;28;20556;-79
2023/02/01 04:01:28;;;;;;;6.13;3.10;;;;;;;3.80;56.94;99572.84;5093029;28;20028;-79
2023/02/01 04:03:54;;;;;;;4.43;2.83;;;;;;;4.33;57.09;99652.69;5094433;28;20028;-79
2023/02/01 04:06:19;;;;;;;3.67;3.30;;;;;;;4.30;57.05;99648.56;5094351;28;20034;-79
2023/02/01 04:08:45;;;;;;;2.90;2.67;;;;;;;4.32;56.85;99651.88;5096298;28;20474;-79
2023/02/01 04:11:10;;;;;;;6.03;4.50;;;;;;;4.06;56.76;99608.91;5095912;28;20028;-79
2023/02/01 04:13:36;;;;;;;4.10;3.63;;;;;;;4.13;56.83;99617.88;5096028;28;20036;-79
2023/02/01 04:16:01;;;;;;;4.03;3.60;;;;;;;4.00;56.66;99597.22;5095244;28;20099;-79
2023/02/01 04:18:26;;;;;;;4.13;3.20;;;;;;;3.93;56.54;99595.28;5096871;28;20035;-79
2023/02/01 04:20:52;;;;;;;4.30;3.80;;;;;;;4.37;56.60;99681.03;5096289;28;20083;-79
2023/02/01 04:23:17;;;;;;;6.53;3.97;;;;;;;4.41;56.56;99661.50;5097024;28;20393;-79
2023/02/01 04:25:42;;;;;;;6.80;3.97;;;;;;;3.82;56.56;99573.53;5095292;28;20070;-79
2023/02/01 04:28:08;;;;;;;5.67;4.50;;;;;;;4.43;56.27;99664.81;5096784;28;20393;-79
2023/02/01 04:30:34;;;;;;;4.27;3.87;;;;;;;3.88;56.59;99589.63;5095091;28;20103;-79
2023/02/01 04:32:59;;;;;;;5.00;3.60;;;;;;;4.31;56.47;99662.44;5095678;28;20052;-79
2023/02/01 04:35:25;;;;;;;4.20;3.80;;;;;;;3.71;56.39;99563.19;5094884;28;20026;-79
2023/02/01 04:37:50;;;;;;;4.00;3.60;;;;;;;3.90;56.20;99596.38;5095875;28;20098;-79
2023/02/01 04:40:16;;;;;;;4.73;3.87;;;;;;;3.71;56.59;99573.63;5096117;28;20032;-79
2023/02/01 04:42:41;;;;;;;3.97;3.47;;;;;;;4.14;56.50;99633.41;5094791;28;20027;-78
2023/02/01 04:45:08;;;;;;;4.17;3.40;;;;;;;3.74;56.68;99570.78;5096059;28;20095;-79
2023/02/01 04:47:34;;;;;;;5.33;4.47;;;;;;;4.06;56.51;99619.38;5094528;28;20416;-79
2023/02/01 04:49:59;;;;;;;3.97;3.60;;;;;;;4.39;56.52;99694.78;5095552;28;20024;-79
2023/02/01 04:52:25;;;;;;;4.50;3.80;;;;;;;4.05;56.61;99644.66;5095240;28;20043;-79
2023/02/01 04:54:50;;;;;;;4.50;4.10;;;;;;;3.95;56.80;99615.09;5092816;28;20480;-78
2023/02/01 04:57:15;;;;;;;20.23;11.47;;;;;;;4.27;56.56;99655.84;5092872;28;20024;-79
2023/02/01 04:59:41;;;;;;;6.50;5.30;;;;;;;4.18;56.80;99667.94;5092485;28;20036;-79
2023/02/01 05:02:06;;;;;;;6.70;5.30;;;;;;;4.04;56.47;99645.63;5092556;28;20058;-79
2023/02/01 05:04:32;;;;;;;9.40;7.13;;;;;;;3.50;56.89;99560.66;5092218;28;20076;-79
2023/02/01 05:06:57;;;;;;;14.23;9.17;;;;;;;4.05;56.83;99669.97;5092491;28;20028;-79
2023/02/01 05:09:22;;;;;;;18.83;11.20;;;;;;;4.35;57.16;99701.25;5092895;28;20428;-79
2023/02/01 05:14:31;;;;;;;13.90;8.90;;;;;;;4.17;56.74;99688.97;5093548;28;20084;-79
2023/02/01 05:16:57;;;;;;;12.10;8.20;;;;;;;3.80;56.54;99624.25;5092948;28;20154;-79
2023/02/01 05:19:22;;;;;;;12.77;8.73;;;;;;;4.36;56.83;99715.16;5092866;28;20544;-79
2023/02/01 05:21:47;;;;;;;10.60;7.77;;;;;;;3.95;56.66;99662.09;5093084;28;20028;-79
2023/02/01 05:24:13;;;;;;;10.60;8.03;;;;;;;4.29;56.77;99724.50;5092204;28;20041;-79
2023/02/01 05:26:42;;;;;;;11.97;7.03;;;;;;;4.32;56.76;99735.50;5091861;28;20051;-79
2023/02/01 05:29:09;;;;;;;10.00;7.97;;;;;;;3.77;56.88;99664.50;5092290;28;20098;-79
2023/02/01 05:31:35;;;;;;;9.60;6.37;;;;;;;4.22;56.89;99724.19;5091823;28;20421;-79
2023/02/01 05:34:00;;;;;;;11.87;8.30;;;;;;;3.44;56.88;99591.66;5092115;28;20028;-79
2023/02/01 05:36:26;;;;;;;11.47;6.83;;;;;;;4.24;56.57;99721.44;5092035;28;20055;-79
2023/02/01 05:38:51;;;;;;;11.17;8.17;;;;;;;4.01;56.79;99682.47;5092681;28;20024;-78
2023/02/01 05:41:17;;;;;;;12.33;9.20;;;;;;;4.27;56.52;99722.00;5093721;28;20039;-78
2023/02/01 05:43:42;;;;;;;16.03;9.67;;;;;;;3.93;56.70;99664.00;5092774;28;20034;-79
2023/02/01 05:46:10;;;;;;;13.47;9.53;;;;;;;3.85;56.63;99657.81;5092559;28;20473;-79
2023/02/01 05:48:36;;;;;;;16.07;10.10;;;;;;;3.86;56.40;99664.69;5092094;28;20504;-79
2023/02/01 05:51:01;;;;;;;17.37;10.07;;;;;;;3.89;56.52;99680.91;5092022;28;20020;-78
2023/02/01 05:53:26;;;;;;;16.50;9.20;;;;;;;3.68;55.94;99652.22;5091016;28;20537;-79
2023/02/01 05:55:52;;;;;;;22.80;12.47;;;;;;;4.24;56.13;99742.34;5091471;28;20552;-79
2023/02/01 05:58:17;;;;;;;21.20;11.77;;;;;;;4.19;55.98;99740.13;5091177;28;20020;-79
2023/02/01 06:00:42;;;;;;;20.67;11.63;;;;;;;3.82;56.02;99674.56;5091261;28;20394;-79
2023/02/01 06:03:08;;;;;;;20.93;10.53;;;;;;;3.61;56.04;99651.09;5091502;28;20111;-79
2023/02/01 06:05:33;;;;;;;20.27;11.57;;;;;;;3.57;56.10;99630.59;5091177;28;20028;-79
2023/02/01 06:07:59;;;;;;;13.17;9.17;;;;;;;4.22;55.79;99726.81;5095544;28;20039;-78
2023/02/01 06:10:24;;;;;;;10.77;8.40;;;;;;;4.27;56.04;99739.47;5093340;28;20468;-79
2023/02/01 06:12:50;;;;;;;11.70;8.37;;;;;;;3.98;55.81;99716.69;5092774;28;20024;-79
2023/02/01 06:15:16;;;;;;;11.20;7.77;;;;;;;3.73;55.90;99684.00;5092262;28;20024;-79
2023/02/01 06:17:43;;;;;;;7.93;6.30;;;;;;;4.13;55.83;99745.91;5093105;28;20027;-78
2023/02/01 06:20:10;;;;;;;7.70;5.80;;;;;;;4.12;55.53;99744.25;5093510;28;20048;-79
2023/02/01 06:22:36;;;;;;;7.00;6.30;;;;;;;3.64;55.24;99660.44;5092336;28;20028;-79
2023/02/01 06:25:06;;;;;;;7.60;6.80;;;;;;;3.61;55.23;99661.53;5093092;28;20405;-79
2023/02/01 06:27:32;;;;;;;7.47;6.53;;;;;;;3.91;55.35;99701.69;5093795;28;20032;-79
2023/02/01 06:29:58;;;;;;;11.63;7.47;;;;;;;4.14;55.25;99755.38;5093420;28;20405;-79
2023/02/01 06:32:24;;;;;;;9.57;6.57;;;;;;;4.08;54.92;99729.78;5090707;28;20032;-79
2023/02/01 06:34:52;;;;;;;12.03;7.90;;;;;;;3.47;54.89;99626.16;5093132;28;20036;-78
2023/02/01 06:37:19;;;;;;;8.10;6.23;;;;;;;3.89;54.91;99695.75;5089859;28;20311;-78
2023/02/01 06:39:45;;;;;;;7.87;6.17;;;;;;;3.40;54.72;99627.66;5091548;28;20031;-78
2023/02/01 06:42:10;;;;;;;7.40;6.30;;;;;;;4.29;54.72;99759.28;5094590;28;20024;-79
2023/02/01 06:44:36;;;;;;;11.80;7.77;;;;;;;3.79;54.58;99693.09;5095319;28;20023;-79
2023/02/01 06:47:03;;;;;;;13.23;7.60;;;;;;;4.40;54.62;99780.09;5094802;28;20036;-80
2023/02/01 06:49:28;;;;;;;13.80;9.20;;;;;;;4.00;54.49;99712.16;5095039;28;20073;-78
2023/02/01 06:51:54;;;;;;;8.87;7.37;;;;;;;4.01;54.37;99715.59;5094457;28;20020;-79
2023/02/01 06:54:19;;;;;;;9.47;7.40;;;;;;;4.47;54.47;99776.03;5094405;28;20758;-79
2023/02/01 06:56:45;;;;;;;7.40;6.10;;;;;;;4.09;54.36;99711.38;5096739;28;20028;-79
2023/02/01 06:59:11;;;;;;;10.43;7.10;;;;;;;4.01;53.88;99699.94;5096889;28;20032;-78
2023/02/01 07:01:36;;;;;;;10.73;7.77;;;;;;;4.02;54.21;99699.78;5097527;28;20028;-79
2023/02/01 07:04:02;;;;;;;8.90;7.00;;;;;;;4.50;54.04;99781.94;5096830;28;20469;-79
2023/02/01 07:06:28;;;;;;;9.03;6.77;;;;;;;4.56;54.10;99781.41;5097479;28;20028;-79
2023/02/01 07:08:55;;;;;;;8.30;6.37;;;;;;;4.50;54.12;99768.88;5094025;28;20020;-79
2023/02/01 07:11:21;;;;;;;9.63;6.00;;;;;;;4.67;53.90;99782.13;5093570;28;20032;-79
2023/02/01 07:13:47;;;;;;;6.97;5.77;;;;;;;4.40;53.98;99732.22;5095208;28;20081;-79
2023/02/01 07:16:18;;;;;;;9.27;6.40;;;;;;;4.66;53.64;99762.16;5095083;28;20024;-79
2023/02/01 07:18:44;;;;;;;6.77;5.33;;;;;;;4.89;53.52;99786.28;5092524;28;20083;-80
2023/02/01 07:21:10;;;;;;;6.43;5.27;;;;;;;4.28;53.33;99678.41;5085739;28;20128;-79
2023/02/01 07:23:35;;;;;;;6.83;5.23;;;;;;;4.82;53.17;99759.03;5105168;28;20039;-79
2023/02/01 07:26:04;;;;;;;7.27;5.27;;;;;;;4.67;53.00;99731.63;5099247;27;20492;-79
2023/02/01 07:28:31;;;;;;;5.83;4.73;;;;;;;4.69;52.88;99734.91;5089747;28;20063;-79
2023/02/01 07:31:05;;;;;;;6.53;5.03;;;;;;;5.24;52.70;99792.81;5091548;28;20055;-80
2023/02/01 07:33:31;;;;;;;8.27;5.73;;;;;;;5.16;52.70;99797.88;5093069;28;20385;-80
2023/02/01 07:35:57;;;;;;;8.57;5.70;;;;;;;4.75;52.25;99734.38;5092337;28;20028;-80
2023/02/01 07:38:23;;;;;;;7.20;5.00;;;;;;;4.75;52.54;99729.97;5093864;28;20492;-80
2023/02/01 07:40:49;;;;;;;6.27;4.83;;;;;;;5.19;52.34;99808.91;5093788;28;20040;-80
2023/02/01 07:43:15;;;;;;;7.20;4.87;;;;;;;4.96;52.48;99765.66;5092807;28;20027;-80
2023/02/01 07:45:40;;;;;;;7.27;5.00;;;;;;;5.13;52.10;99803.41;5092628;28;20036;-80
2023/02/01 07:48:06;;;;;;;7.97;5.37;;;;;;;5.25;52.36;99799.72;5093242;28;20512;-79
2023/02/01 07:50:32;;;;;;;10.30;6.53;;;;;;;4.96;52.15;99744.72;5091852;28;20591;-78
2023/02/01 07:53:00;;;;;;;10.53;6.73;;;;;;;4.87;51.82;99740.31;5094330;28;20080;-79
2023/02/01 07:55:26;;;;;;;8.03;4.97;;;;;;;4.88;51.80;99748.00;5094514;28;20064;-78
2023/02/01 07:57:52;;;;;;;6.03;4.93;;;;;;;4.67;51.71;99735.06;5089941;28;20023;-77
2023/02/01 08:03:04;;;;;;;9.67;6.23;;;;;;;5.03;52.20;99778.03;5094923;28;20035;-76
2023/02/01 08:05:29;;;;;;;8.13;7.07;;;;;;;4.76;52.10;99736.03;5095652;28;20510;-79
2023/02/01 08:07:55;;;;;;;9.93;7.13;;;;;;;4.85;51.77;99763.16;5094587;28;20032;-80
2023/02/01 08:10:20;;;;;;;9.40;6.50;;;;;;;4.88;52.00;99750.63;5093717;28;20075;-80
2023/02/01 08:12:48;;;;;;;9.47;6.33;;;;;;;5.31;51.92;99818.31;5087941;28;20042;-79
2023/02/01 08:15:17;;;;;;;7.37;5.47;;;;;;;4.73;51.71;99739.75;5087373;28;20488;-80
2023/02/01 08:17:50;;;;;;;7.60;6.00;;;;;;;5.28;52.05;99799.44;5093128;28;20032;-80
2023/02/01 08:20:17;;;;;;;10.80;8.10;;;;;;;4.93;51.88;99763.31;5093197;28;20072;-79
2023/02/01 08:22:42;;;;;;;9.07;6.70;;;;;;;5.38;51.91;99802.88;5093165;28;20024;-80
2023/02/01 08:25:08;;;;;;;13.27;6.40;;;;;;;4.89;51.89;99728.75;5090942;28;20035;-79
2023/02/01 08:27:34;;;;;;;9.53;6.07;;;;;;;5.49;51.71;99820.22;5077198;28;20031;-80
2023/02/01 08:30:00;;;;;;;9.87;7.33;;;;;;;5.21;51.75;99769.53;5081002;28;20032;-80
2023/02/01 08:32:26;;;;;;;7.10;6.00;;;;;;;5.55;51.80;99812.66;5084628;28;20028;-80
2023/02/01 08:34:52;;;;;;;8.33;6.50;;;;;;;5.23;51.86;99763.19;5083443;28;20119;-80
2023/02/01 08:37:17;;;;;;;9.83;5.50;;;;;;;5.30;52.03;99763.47;5092555;28;20161;-80
2023/02/01 08:39:46;;;;;;;6.63;5.57;;;;;;;5.51;51.91;99803.41;5092772;28;20039;-80
2023/02/01 08:44:56;;;;;;;10.57;6.10;;;;;;;5.64;51.75;99814.44;5091898;28;20050;-80
2023/02/01 08:47:22;;;;;;;9.30;5.20;;;;;;;5.66;51.82;99802.03;5091463;28;20496;-79
2023/02/01 08:49:48;;;;;;;6.10;4.60;;;;;;;5.36;51.64;99739.34;5091957;28;20024;-80
2023/02/01 08:52:13;;;;;;;9.70;6.20;;;;;;;5.51;51.49;99755.44;5091865;28;20016;-78
2023/02/01 08:54:40;;;;;;;8.83;6.23;;;;;;;5.43;51.27;99732.59;5085853;28;20051;-78
2023/02/01 08:57:06;;;;;;;6.70;5.70;;;;;;;5.42;51.24;99731.75;5087876;28;20066;-80
2023/02/01 08:59:32;;;;;;;6.83;5.67;;;;;;;5.79;51.12;99777.31;5086532;28;20059;-76
2023/02/01 09:01:57;;;;;;;5.00;4.50;;;;;;;5.65;51.11;99729.63;5086698;28;20100;-78
2023/02/01 09:04:23;;;;;;;6.20;4.72;;;;;;;5.77;51.25;99753.03;5087911;28;20039;-77
2023/02/01 09:06:48;;;;;;;6.07;4.57;;;;;;;6.26;50.94;99813.09;5090687;28;20031;-77
2023/02/01 09:09:13;;;;;;;6.03;4.50;;;;;;;6.00;50.57;99760.47;5087110;28;20032;-79
2023/02/01 09:11:39;;;;;;;8.93;4.80;;;;;;;5.66;50.67;99692.00;5083196;28;20420;-78
2023/02/01 09:14:04;;;;;;;6.07;4.22;;;;;;;5.97;50.89;99738.97;5086633;28;20535;-78
2023/02/01 09:16:30;;;;;;;5.85;4.38;;;;;;;6.47;50.60;99793.69;5088368;28;20115;-78
2023/02/01 09:18:55;;;;;;;8.55;4.80;;;;;;;6.33;50.94;99764.34;5086127;28;20032;-78
2023/02/01 09:21:21;;;;;;;9.40;7.57;;;;;;;6.41;50.78;99763.63;5087523;28;20032;-80
2023/02/01 09:23:48;;;;;;;7.40;5.10;;;;;;;6.80;50.35;99794.91;5087528;28;20050;-80
2023/02/01 09:26:14;;;;;;;8.75;5.10;;;;;;;6.49;50.67;99737.47;5089947;28;20039;-80
2023/02/01 09:28:39;;;;;;;6.53;3.97;;;;;;;6.89;49.58;99794.84;5091577;28;20028;-79
2023/02/01 09:31:04;;;;;;;5.13;3.13;;;;;;;6.32;48.41;99699.75;5091525;28;20039;-79
2023/02/01 09:33:30;;;;;;;4.50;3.22;;;;;;;6.72;48.10;99735.28;5086564;28;20032;-79
2023/02/01 09:36:01;;;;;;;5.07;3.72;;;;;;;6.85;47.66;99735.75;5104574;28;20110;-79
2023/02/01 09:38:27;;;;;;;7.13;3.88;;;;;;;6.97;47.95;99755.53;5089741;28;20515;-79
2023/02/01 09:40:53;;;;;;;3.78;3.38;;;;;;;6.73;47.50;99691.50;5091564;28;20024;-78
2023/02/01 09:43:28;;;;;;;4.80;3.20;;;;;;;6.79;47.61;99715.34;5081427;28;20040;-78
2023/02/01 09:46:16;;;;;;;5.70;3.20;;;;;;;6.82;46.93;99727.34;5081407;28;20028;-78
2023/02/01 09:48:44;;;;;;;10.52;5.38;;;;;;;6.86;47.74;99732.16;5090665;28;20054;-79
2023/02/01 09:51:24;;;;;;;9.18;3.75;;;;;;;6.52;47.27;99653.25;5090810;28;20036;-79
2023/02/01 09:54:21;;;;;;;5.18;4.00;;;;;;;6.71;47.14;99661.97;5084840;28;20060;-78
2023/02/01 09:57:19;;;;;;;10.65;4.93;;;;;;;7.45;47.17;99764.84;5047186;28;20045;-79
2023/02/01 09:59:49;;;;;;;6.35;4.28;;;;;;;7.03;47.27;99678.00;5068323;28;20103;-79
2023/02/01 10:02:19;;;;;;;9.18;4.85;;;;;;;7.67;46.83;99754.81;5070562;28;20114;-79
2023/02/01 10:04:45;;;;;;;5.07;3.15;;;;;;;7.27;46.93;99672.09;5069142;28;20040;-79
2023/02/01 10:07:33;;;;;;;6.18;3.47;;;;;;;7.81;46.72;99741.09;5071171;28;20025;-79
2023/02/01 10:10:25;;;;;;;4.85;3.53;;;;;;;8.00;46.76;99738.25;5070940;28;20028;-79
2023/02/01 10:13:17;;;;;;;4.10;3.05;;;;;;;7.94;45.97;99747.59;5037338;28;20052;-79
2023/02/01 10:16:02;;;;;;;5.20;3.45;;;;;;;7.99;45.84;99749.75;5075102;28;20024;-79
2023/02/01 10:18:45;;;;;;;5.40;3.53;;;;;;;8.03;45.75;99732.69;5074649;28;20028;-79
2023/02/01 10:21:20;;;;;;;6.20;4.22;;;;;;;8.12;45.89;99738.81;5073827;28;20127;-78
2023/02/01 10:24:06;;;;;;;6.30;3.20;;;;;;;8.20;45.65;99749.38;5072456;28;20479;-79
2023/02/01 10:26:42;;;;;;;4.30;3.75;;;;;;;7.88;45.00;99679.88;5074528;28;20059;-79
2023/02/01 10:29:18;;;;;;;6.10;4.07;;;;;;;7.79;44.94;99675.56;5069379;28;20103;-79
2023/02/01 10:31:43;;;;;;;5.65;4.30;;;;;;;8.24;45.34;99741.03;5068648;28;21273;-79
2023/02/01 10:34:22;;;;;;;4.03;3.35;;;;;;;8.18;44.42;99712.72;5071722;28;20058;-78
2023/02/01 10:37:00;;;;;;;5.20;3.55;;;;;;;8.24;44.34;99717.34;5069762;28;20025;-79
2023/02/01 10:39:26;;;;;;;4.32;3.28;;;;;;;7.75;44.65;99636.59;5071771;28;20029;-78
2023/02/01 10:41:52;;;;;;;6.38;3.72;;;;;;;8.33;44.33;99705.09;5072268;28;20104;-79
2023/02/01 10:44:23;;;;;;;8.30;3.88;;;;;;;8.19;44.12;99682.81;5074575;28;20021;-79
2023/02/01 10:46:50;;;;;;;7.03;4.47;;;;;;;8.41;44.42;99706.91;5072303;28;20060;-78
2023/02/01 10:49:40;;;;;;;5.88;3.65;;;;;;;8.48;44.06;99698.22;5071912;28;20028;-79
2023/02/01 10:52:16;;;;;;;5.45;4.05;;;;;;;7.64;44.10;99556.25;5073985;28;20028;-79
2023/02/01 10:54:42;;;;;;;5.85;4.40;;;;;;;8.42;44.45;99656.75;5071561;28;20046;-79
2023/02/01 10:57:21;;;;;;;7.47;4.20;;;;;;;8.60;42.20;99680.31;5074416;28;20489;-79
2023/02/01 10:59:46;;;;;;;5.15;3.38;;;;;;;8.06;43.74;99594.81;5069813;28;20025;-79
2023/02/01 11:02:26;;;;;;;4.45;3.45;;;;;;;8.70;43.49;99683.63;5080086;28;20677;-78
2023/02/01 11:04:59;;;;;;;7.72;4.57;;;;;;;8.81;43.38;99677.22;5062556;28;20516;-79
2023/02/01 11:07:26;;;;;;;7.40;4.10;;;;;;;8.87;43.35;99674.75;5065462;28;20017;-79
2023/02/01 11:09:57;;;;;;;9.27;4.20;;;;;;;8.46;43.06;99597.56;5072451;28;20078;-79
2023/02/01 11:12:40;;;;;;;7.72;4.75;;;;;;;8.45;42.20;99589.84;5073920;28;20044;-79
2023/02/01 11:15:11;;;;;;;9.73;5.63;;;;;;;8.86;42.83;99654.66;5073422;28;20104;-79
2023/02/01 11:17:42;;;;;;;9.03;5.73;;;;;;;8.83;43.25;99654.19;5073948;28;20476;-79
2023/02/01 11:20:41;;;;;;;6.65;3.90;;;;;;;8.72;42.53;99642.16;5069857;28;20294;-79
2023/02/01 11:23:17;;;;;;;6.78;4.88;;;;;;;8.58;42.87;99646.25;5059852;28;20592;-79
2023/02/01 11:25:56;;;;;;;5.78;3.90;;;;;;;8.63;43.76;99642.31;5060118;28;20024;-78
2023/02/01 11:28:25;;;;;;;5.85;4.00;;;;;;;7.99;43.56;99531.53;5073438;28;20519;-79
2023/02/01 11:30:54;;;;;;;5.22;3.42;;;;;;;8.35;43.09;99587.38;5092215;28;20024;-79
2023/02/01 11:33:27;;;;;;;2.95;2.63;;;;;;;8.20;43.39;99574.00;5071061;28;20158;-79
2023/02/01 11:35:53;;;;;;;5.55;3.03;;;;;;;8.37;43.29;99587.19;5071171;28;20124;-79
2023/02/01 11:38:30;;;;;;;6.80;3.70;;;;;;;8.65;43.24;99622.75;5067124;28;20104;-78
2023/02/01 11:41:14;;;;;;;7.13;3.08;;;;;;;8.62;42.81;99617.00;5071090;28;20425;-78
2023/02/01 11:44:01;;;;;;;4.85;3.38;;;;;;;8.62;42.93;99615.19;5068506;28;20038;-78
2023/02/01 11:46:34;;;;;;;6.80;5.00;;;;;;;8.38;42.96;99563.38;5070466;28;20474;-79
2023/02/01 11:49:27;;;;;;;4.20;3.47;;;;;;;8.72;42.78;99584.25;5053935;28;20012;-79
2023/02/01 11:52:10;;;;;;;5.82;3.03;;;;;;;9.01;42.29;99618.00;5063013;28;20032;-79
2023/02/01 11:54:41;;;;;;;4.22;2.85;;;;;;;9.12;42.34;99614.19;5073018;28;20016;-78
2023/02/01 11:57:43;;;;;;;3.85;3.42;;;;;;;8.84;42.41;99553.97;5072705;28;20043;-78
2023/02/01 12:00:30;;;;;;;5.63;3.17;;;;;;;8.77;42.76;99545.09;5062192;28;20440;-79
2023/02/01 12:03:20;;;;;;;4.47;2.92;;;;;;;9.27;42.16;99607.25;5072970;28;20413;-78
2023/02/01 12:06:08;;;;;;;4.85;2.97;;;;;;;9.32;42.02;99607.56;5071164;28;20024;-78
2023/02/01 12:08:55;;;;;;;4.35;3.42;;;;;;;9.36;41.92;99593.06;5067536;28;20686;-77
2023/02/01 12:11:20;;;;;;;6.90;4.45;;;;;;;9.38;42.39;99596.34;5051519;28;20025;-78
2023/02/01 12:14:14;;;;;;;7.25;4.32;;;;;;;9.36;42.25;99589.63;5051292;28;20023;-78
2023/02/01 12:16:57;;;;;;;5.78;4.10;;;;;;;9.28;41.81;99600.16;5052193;28;20027;-78
2023/02/01 12:19:23;;;;;;;5.32;3.25;;;;;;;9.14;42.51;99591.16;5052341;28;20119;-78
2023/02/01 12:22:07;;;;;;;7.97;4.72;;;;;;;9.15;42.61;99582.25;5054766;28;20036;-79
2023/02/01 12:24:55;;;;;;;4.57;2.15;;;;;;;8.83;42.41;99541.78;5070093;28;20081;-78
2023/02/01 12:27:47;;;;;;;3.53;2.08;;;;;;;9.09;42.54;99578.47;5060008;28;20036;-78
2023/02/01 12:30:25;;;;;;;3.95;2.63;;;;;;;9.09;42.60;99567.94;5072609;28;20026;-78